sensor_id;sensor_type;location;lat;lon;timestamp;pressure;altitude;pressure_sealevel;temperature;humidity
65760;BME280;52496;51.082;5.066;2023-04-01T00:02:29;99195.50;;;9.82;100.00
65760;BME280;52496;51.082;5.066;2023-04-01T00:04:59;99194.69;;;9.81;100.00
65760;BME280;52496;51.082;5.066;2023-04-01T00:07:30;99191.81;;;9.83;100.00
65760;BME280;52496;51.082;5.066;2023-04-01T00:10:01;99196.31;;;9.82;100.00
65760;BME280;52496;51.082;5.066;2023-04-01T00:12:31;99195.50;;;9.82;100.00
65760;BME280;52496;51.082;5.066;2023-04-01T00:15:03;99202.69;;;9.81;100.00
65760;BME280;52496;51.082;5.066;2023-04-01T00:17:34;99199.22;;;9.81;100.00
65760;BME280;52496;51.082;5.066;2023-04-01T00:20:05;99206.19;;;9.82;100.00
65760;BME280;52496;51.082;5.066;2023-04-01T00:22:37;99205.97;;;9.83;100.00
65760;BME280;52496;51.082;5.066;2023-04-01T00:25:08;99207.84;;;9.83;100.00
65760;BME280;52496;51.082;5.066;2023-04-01T00:27:39;99209.47;;;9.84;100.00
65760;BME280;52496;51.082;5.066;2023-04-01T00:30:09;99214.78;;;9.84;100.00
65760;BME280;52496;51.082;5.066;2023-04-01T00:32:40;99213.97;;;9.83;100.00
65760;BME280;52496;51.082;5.066;2023-04-01T00:35:11;99209.47;;;9.84;100.00
65760;BME280;52496;51.082;5.066;2023-04-01T00:37:42;99212.13;;;9.84;100.00
65760;BME280;52496;51.082;5.066;2023-04-01T00:40:32;99213.16;;;9.83;100.00
65760;BME280;52496;51.082;5.066;2023-04-01T00:43:03;99210.50;;;9.83;100.00
65760;BME280;52496;51.082;5.066;2023-04-01T00:45:42;99209.91;;;9.81;100.00
65760;BME280;52496;51.082;5.066;2023-04-01T00:50:49;99221.38;;;9.81;100.00
65760;BME280;52496;51.082;5.066;2023-04-01T00:53:21;99224.25;;;9.80;100.00
65760;BME280;52496;51.082;5.066;2023-04-01T00:58:44;99229.59;;;9.80;100.00
65760;BME280;52496;51.082;5.066;2023-04-01T01:01:16;99228.78;;;9.79;100.00
65760;BME280;52496;51.082;5.066;2023-04-01T01:03:47;99221.00;;;9.78;100.00
65760;BME280;52496;51.082;5.066;2023-04-01T01:06:47;99225.53;;;9.77;100.00
65760;BME280;52496;51.082;5.066;2023-04-01T01:12:39;99228.41;;;9.76;100.00
65760;BME280;52496;51.082;5.066;2023-04-01T01:24:02;99237.22;;;9.76;100.00
65760;BME280;52496;51.082;5.066;2023-04-01T01:29:45;99240.72;;;9.77;100.00
65760;BME280;52496;51.082;5.066;2023-04-01T01:37:40;99246.06;;;9.77;100.00
65760;BME280;52496;51.082;5.066;2023-04-01T01:40:13;99231.69;;;9.78;100.00
65760;BME280;52496;51.082;5.066;2023-04-01T01:42:49;99237.03;;;9.78;100.00
65760;BME280;52496;51.082;5.066;2023-04-01T01:45:23;99245.03;;;9.78;100.00
65760;BME280;52496;51.082;5.066;2023-04-01T01:47:55;99245.63;;;9.80;100.00
65760;BME280;52496;51.082;5.066;2023-04-01T01:50:28;99250.94;;;9.80;100.00
65760;BME280;52496;51.082;5.066;2023-04-01T01:53:08;99252.00;;;9.79;100.00
65760;BME280;52496;51.082;5.066;2023-04-01T01:55:42;99250.94;;;9.80;100.00
65760;BME280;52496;51.082;5.066;2023-04-01T01:58:37;99252.00;;;9.79;100.00
65760;BME280;52496;51.082;5.066;2023-04-01T02:01:24;99254.91;;;9.77;100.00
65760;BME280;52496;51.082;5.066;2023-04-01T02:03:57;99259.41;;;9.77;100.00
65760;BME280;52496;51.082;5.066;2023-04-01T02:06:30;99259.63;;;9.75;100.00
65760;BME280;52496;51.082;5.066;2023-04-01T02:09:06;99262.50;;;9.74;100.00
65760;BME280;52496;51.082;5.066;2023-04-01T02:11:49;99264.97;;;9.75;100.00
65760;BME280;52496;51.082;5.066;2023-04-01T02:14:23;99260.88;;;9.73;100.00
65760;BME280;52496;51.082;5.066;2023-04-01T02:17:11;99274.84;;;9.75;100.00
65760;BME280;52496;51.082;5.066;2023-04-01T02:19:56;99264.97;;;9.75;100.00
65760;BME280;52496;51.082;5.066;2023-04-01T02:22:31;99270.50;;;9.74;100.00
65760;BME280;52496;51.082;5.066;2023-04-01T02:25:08;99276.88;;;9.73;100.00
65760;BME280;52496;51.082;5.066;2023-04-01T02:27:42;99281.41;;;9.72;100.00
65760;BME280;52496;51.082;5.066;2023-04-01T02:30:16;99277.94;;;9.72;100.00
65760;BME280;52496;51.082;5.066;2023-04-01T02:32:48;99281.63;;;9.71;100.00
65760;BME280;52496;51.082;5.066;2023-04-01T02:35:19;99280.00;;;9.70;100.00
65760;BME280;52496;51.082;5.066;2023-04-01T02:37:51;99281.03;;;9.69;100.00
65760;BME280;52496;51.082;5.066;2023-04-01T02:40:22;99289.03;;;9.69;100.00
65760;BME280;52496;51.082;5.066;2023-04-01T02:42:53;99295.41;;;9.68;100.00
65760;BME280;52496;51.082;5.066;2023-04-01T02:45:23;99286.56;;;9.67;100.00
65760;BME280;52496;51.082;5.066;2023-04-01T02:47:54;99292.72;;;9.68;100.00
65760;BME280;52496;51.082;5.066;2023-04-01T02:50:25;99288.44;;;9.67;100.00
65760;BME280;52496;51.082;5.066;2023-04-01T02:52:55;99295.63;;;9.66;100.00
65760;BME280;52496;51.082;5.066;2023-04-01T02:55:26;99302.81;;;9.65;100.00
65760;BME280;52496;51.082;5.066;2023-04-01T02:57:57;99308.16;;;9.65;100.00
65760;BME280;52496;51.082;5.066;2023-04-01T03:00:27;99304.88;;;9.63;100.00
65760;BME280;52496;51.082;5.066;2023-04-01T03:02:58;99298.72;;;9.63;100.00
65760;BME280;52496;51.082;5.066;2023-04-01T03:05:29;99307.78;;;9.62;100.00
65760;BME280;52496;51.082;5.066;2023-04-01T03:07:59;99302.66;;;9.60;100.00
65760;BME280;52496;51.082;5.066;2023-04-01T03:10:30;99309.03;;;9.59;100.00
65760;BME280;52496;51.082;5.066;2023-04-01T03:13:00;99312.69;;;9.58;100.00
65760;BME280;52496;51.082;5.066;2023-04-01T03:15:31;99320.13;;;9.56;100.00
65760;BME280;52496;51.082;5.066;2023-04-01T03:18:02;99332.84;;;9.54;100.00
65760;BME280;52496;51.082;5.066;2023-04-01T03:20:33;99315.41;;;9.52;100.00
65760;BME280;52496;51.082;5.066;2023-04-01T03:23:03;99321.81;;;9.51;100.00
65760;BME280;52496;51.082;5.066;2023-04-01T03:25:34;99326.31;;;9.50;100.00
65760;BME280;52496;51.082;5.066;2023-04-01T03:28:04;99320.38;;;9.48;100.00
65760;BME280;52496;51.082;5.066;2023-04-01T03:30:35;99332.09;;;9.47;100.00
65760;BME280;52496;51.082;5.066;2023-04-01T03:33:05;99330.44;;;9.46;100.00
65760;BME280;52496;51.082;5.066;2023-04-01T03:35:36;99343.19;;;9.44;100.00
65760;BME280;52496;51.082;5.066;2023-04-01T03:38:06;99341.53;;;9.43;100.00
65760;BME280;52496;51.082;5.066;2023-04-01T03:40:37;99345.25;;;9.42;100.00
65760;BME280;52496;51.082;5.066;2023-04-01T03:43:08;99343.63;;;9.41;100.00
65760;BME280;52496;51.082;5.066;2023-04-01T03:45:47;99353.66;;;9.39;100.00
65760;BME280;52496;51.082;5.066;2023-04-01T03:48:18;99351.81;;;9.39;100.00
65760;BME280;52496;51.082;5.066;2023-04-01T03:50:48;99360.03;;;9.38;100.00
65760;BME280;52496;51.082;5.066;2023-04-01T03:53:19;99354.72;;;9.38;100.00
65760;BME280;52496;51.082;5.066;2023-04-01T03:55:50;99350.38;;;9.37;100.00
65760;BME280;52496;51.082;5.066;2023-04-01T03:58:23;99354.91;;;9.36;100.00
65760;BME280;52496;51.082;5.066;2023-04-01T04:00:54;99353.91;;;9.37;100.00
65760;BME280;52496;51.082;5.066;2023-04-01T04:03:26;99364.56;;;9.37;100.00
65760;BME280;52496;51.082;5.066;2023-04-01T04:05:57;99368.06;;;9.38;100.00
65760;BME280;52496;51.082;5.066;2023-04-01T04:08:27;99369.06;;;9.37;100.00
65760;BME280;52496;51.082;5.066;2023-04-01T04:10:58;99378.09;;;9.36;100.00
65760;BME280;52496;51.082;5.066;2023-04-01T04:13:28;99372.78;;;9.36;100.00
65760;BME280;52496;51.082;5.066;2023-04-01T04:15:59;99378.09;;;9.36;100.00
65760;BME280;52496;51.082;5.066;2023-04-01T04:18:29;99378.09;;;9.36;100.00
65760;BME280;52496;51.082;5.066;2023-04-01T04:21:00;99378.09;;;9.36;100.00
65760;BME280;52496;51.082;5.066;2023-04-01T04:23:30;99387.16;;;9.35;100.00
65760;BME280;52496;51.082;5.066;2023-04-01T04:26:06;99390.41;;;9.37;100.00
65760;BME280;52496;51.082;5.066;2023-04-01T04:28:37;99390.41;;;9.37;100.00
65760;BME280;52496;51.082;5.066;2023-04-01T04:31:08;99394.94;;;9.36;100.00
65760;BME280;52496;51.082;5.066;2023-04-01T04:33:41;99399.44;;;9.36;100.00
65760;BME280;52496;51.082;5.066;2023-04-01T04:36:12;99393.28;;;9.35;100.00
65760;BME280;52496;51.082;5.066;2023-04-01T04:38:42;99401.50;;;9.34;100.00
65760;BME280;52496;51.082;5.066;2023-04-01T04:41:14;99389.81;;;9.35;100.00
65760;BME280;52496;51.082;5.066;2023-04-01T04:43:53;99401.50;;;9.34;100.00
65760;BME280;52496;51.082;5.066;2023-04-01T04:46:25;99402.34;;;9.34;100.00
65760;BME280;52496;51.082;5.066;2023-04-01T04:48:56;99401.50;;;9.34;100.00
65760;BME280;52496;51.082;5.066;2023-04-01T04:51:26;99402.34;;;9.34;100.00
65760;BME280;52496;51.082;5.066;2023-04-01T04:53:56;99411.34;;;9.33;100.00
65760;BME280;52496;51.082;5.066;2023-04-01T04:56:27;99415.06;;;9.32;100.00
65760;BME280;52496;51.082;5.066;2023-04-01T04:58:58;99411.59;;;9.32;100.00
65760;BME280;52496;51.082;5.066;2023-04-01T05:01:28;99415.06;;;9.32;100.00
65760;BME280;52496;51.082;5.066;2023-04-01T05:03:59;99421.22;;;9.33;100.00
65760;BME280;52496;51.082;5.066;2023-04-01T05:06:30;99425.50;;;9.34;100.00
65760;BME280;52496;51.082;5.066;2023-04-01T05:09:01;99423.88;;;9.33;100.00
65760;BME280;52496;51.082;5.066;2023-04-01T05:11:32;99434.78;;;9.31;100.00
65760;BME280;52496;51.082;5.066;2023-04-01T05:14:02;99430.25;;;9.32;100.00
65760;BME280;52496;51.082;5.066;2023-04-01T05:16:33;99436.59;;;9.31;100.00
65760;BME280;52496;51.082;5.066;2023-04-01T05:19:04;99440.31;;;9.30;100.00
65760;BME280;52496;51.082;5.066;2023-04-01T05:21:35;99440.31;;;9.30;100.00
65760;BME280;52496;51.082;5.066;2023-04-01T05:24:08;99445.63;;;9.30;100.00
65760;BME280;52496;51.082;5.066;2023-04-01T05:26:39;99448.31;;;9.30;100.00
65760;BME280;52496;51.082;5.066;2023-04-01T05:29:10;99455.28;;;9.31;100.00
65760;BME280;52496;51.082;5.066;2023-04-01T05:31:40;99457.94;;;9.31;100.00
65760;BME280;52496;51.082;5.066;2023-04-01T05:34:13;99458.97;;;9.30;100.00
65760;BME280;52496;51.082;5.066;2023-04-01T05:36:44;99466.16;;;9.29;100.00
65760;BME280;52496;51.082;5.066;2023-04-01T05:39:18;99468.59;;;9.31;100.00
65760;BME280;52496;51.082;5.066;2023-04-01T05:41:49;99475.59;;;9.32;100.00
65760;BME280;52496;51.082;5.066;2023-04-01T05:44:20;99479.09;;;9.32;100.00
65760;BME280;52496;51.082;5.066;2023-04-01T05:46:50;99475.59;;;9.32;100.00
65760;BME280;52496;51.082;5.066;2023-04-01T05:49:22;99477.22;;;9.33;100.00
65760;BME280;52496;51.082;5.066;2023-04-01T05:51:52;99483.59;;;9.32;100.00
65760;BME280;52496;51.082;5.066;2023-04-01T05:54:23;99491.59;;;9.32;100.00
65760;BME280;52496;51.082;5.066;2023-04-01T05:56:53;99487.28;;;9.31;100.00
65760;BME280;52496;51.082;5.066;2023-04-01T05:59:27;99482.56;;;9.33;100.00
65760;BME280;52496;51.082;5.066;2023-04-01T06:01:58;99492.44;;;9.32;100.00
65760;BME280;52496;51.082;5.066;2023-04-01T06:04:37;99489.75;;;9.32;100.00
65760;BME280;52496;51.082;5.066;2023-04-01T06:07:11;99499.19;;;9.35;100.00
65760;BME280;52496;51.082;5.066;2023-04-01T06:09:44;99507.41;;;9.33;100.00
65760;BME280;52496;51.082;5.066;2023-04-01T06:15:39;99509.88;;;9.35;100.00
65760;BME280;52496;51.082;5.066;2023-04-01T06:26:16;99526.28;;;9.38;100.00
65760;BME280;52496;51.082;5.066;2023-04-01T06:28:55;99523.78;;;9.37;100.00
65760;BME280;52496;51.082;5.066;2023-04-01T06:34:16;99543.91;;;9.39;100.00
65760;BME280;52496;51.082;5.066;2023-04-01T06:37:03;99543.09;;;9.39;100.00
65760;BME280;52496;51.082;5.066;2023-04-01T06:42:45;99551.50;;;9.42;100.00
65760;BME280;52496;51.082;5.066;2023-04-01T06:48:28;99563.41;;;9.40;100.00
65760;BME280;52496;51.082;5.066;2023-04-01T06:51:24;99562.59;;;9.39;100.00
65760;BME280;52496;51.082;5.066;2023-04-01T06:54:03;99573.47;;;9.38;100.00
65760;BME280;52496;51.082;5.066;2023-04-01T06:56:36;99579.63;;;9.38;100.00
65760;BME280;52496;51.082;5.066;2023-04-01T06:59:15;99581.47;;;9.38;100.00
65760;BME280;52496;51.082;5.066;2023-04-01T07:01:59;99575.09;;;9.39;100.00
65760;BME280;52496;51.082;5.066;2023-04-01T07:04:40;99583.75;;;9.41;100.00
65760;BME280;52496;51.082;5.066;2023-04-01T07:07:37;99591.53;;;9.42;100.00
65760;BME280;52496;51.082;5.066;2023-04-01T07:10:35;99599.34;;;9.44;100.00
65760;BME280;52496;51.082;5.066;2023-04-01T07:13:18;99600.16;;;9.45;100.00
65760;BME280;52496;51.082;5.066;2023-04-01T07:16:11;99602.19;;;9.49;100.00
65760;BME280;52496;51.082;5.066;2023-04-01T07:19:03;99610.00;;;9.51;100.00
65760;BME280;52496;51.082;5.066;2023-04-01T07:24:15;99614.91;;;9.54;100.00
65760;BME280;52496;51.082;5.066;2023-04-01T07:26:49;99623.53;;;9.56;100.00
65760;BME280;52496;51.082;5.066;2023-04-01T07:29:23;99619.59;;;9.58;100.00
65760;BME280;52496;51.082;5.066;2023-04-01T07:35:00;99630.31;;;9.65;100.00
65760;BME280;52496;51.082;5.066;2023-04-01T07:40:13;99627.63;;;9.65;100.00
65760;BME280;52496;51.082;5.066;2023-04-01T07:48:58;99643.22;;;9.61;100.00
65760;BME280;52496;51.082;5.066;2023-04-01T07:51:59;99655.75;;;9.61;100.00
65760;BME280;52496;51.082;5.066;2023-04-01T07:57:32;99658.81;;;9.64;100.00
65760;BME280;52496;51.082;5.066;2023-04-01T08:00:13;99664.16;;;9.64;100.00
65760;BME280;52496;51.082;5.066;2023-04-01T08:05:26;99657.81;;;9.65;100.00
65760;BME280;52496;51.082;5.066;2023-04-01T08:13:35;99693.72;;;9.70;100.00
65760;BME280;52496;51.082;5.066;2023-04-01T08:16:23;99687.34;;;9.71;100.00
65760;BME280;52496;51.082;5.066;2023-04-01T08:22:12;99698.66;;;9.73;100.00
65760;BME280;52496;51.082;5.066;2023-04-01T08:24:49;99695.56;;;9.76;100.00
65760;BME280;52496;51.082;5.066;2023-04-01T08:28:04;99703.59;;;9.76;100.00
65760;BME280;52496;51.082;5.066;2023-04-01T08:30:44;99712.22;;;9.78;100.00
65760;BME280;52496;51.082;5.066;2023-04-01T08:33:38;99708.50;;;9.79;100.00
65760;BME280;52496;51.082;5.066;2023-04-01T08:36:20;99723.28;;;9.81;100.00
65760;BME280;52496;51.082;5.066;2023-04-01T08:39:42;99721.25;;;9.83;100.00
65760;BME280;52496;51.082;5.066;2023-04-01T08:41:56;99717.75;;;9.83;100.00
65760;BME280;52496;51.082;5.066;2023-04-01T08:44:39;99723.69;;;9.85;100.00
65760;BME280;52496;51.082;5.066;2023-04-01T08:47:18;99726.56;;;9.90;100.00
65760;BME280;52496;51.082;5.066;2023-04-01T09:02:35;99743.81;;;10.14;100.00
65760;BME280;52496;51.082;5.066;2023-04-01T09:24:44;99753.84;;;10.39;100.00
65760;BME280;52496;51.082;5.066;2023-04-01T09:44:35;99777.84;;;10.52;100.00
65760;BME280;52496;51.082;5.066;2023-04-01T09:47:33;99776.63;;;10.54;100.00
65760;BME280;52496;51.082;5.066;2023-04-01T09:58:59;99793.03;;;10.65;100.00
65760;BME280;52496;51.082;5.066;2023-04-01T10:13:14;99808.06;;;10.66;100.00
65760;BME280;52496;51.082;5.066;2023-04-01T10:19:29;99813.16;;;10.74;100.00
65760;BME280;52496;51.082;5.066;2023-04-01T10:48:49;99835.75;;;11.36;100.00
65760;BME280;52496;51.082;5.066;2023-04-01T10:52:11;99835.53;;;11.44;100.00
65760;BME280;52496;51.082;5.066;2023-04-01T11:00:25;99841.16;;;11.61;100.00
65760;BME280;52496;51.082;5.066;2023-04-01T11:09:24;99846.72;;;11.66;100.00
65760;BME280;52496;51.082;5.066;2023-04-01T11:15:30;99847.72;;;11.72;100.00
65760;BME280;52496;51.082;5.066;2023-04-01T11:23:37;99859.16;;;11.54;100.00
65760;BME280;52496;51.082;5.066;2023-04-01T11:29:26;99872.63;;;11.34;100.00
65760;BME280;52496;51.082;5.066;2023-04-01T11:32:29;99870.78;;;11.28;100.00
65760;BME280;52496;51.082;5.066;2023-04-01T11:46:14;99890.63;;;11.07;100.00
65760;BME280;52496;51.082;5.066;2023-04-01T12:01:17;99911.28;;;10.87;100.00
65760;BME280;52496;51.082;5.066;2023-04-01T12:10:28;99924.22;;;10.90;100.00
65760;BME280;52496;51.082;5.066;2023-04-01T12:13:35;99933.06;;;10.90;100.00
65760;BME280;52496;51.082;5.066;2023-04-01T12:45:38;99967.44;;;10.80;100.00
65760;BME280;52496;51.082;5.066;2023-04-01T12:48:21;99965.78;;;10.79;100.00
65760;BME280;52496;51.082;5.066;2023-04-01T13:05:35;99982.44;;;11.01;100.00
65760;BME280;52496;51.082;5.066;2023-04-01T13:17:10;99989.66;;;10.94;100.00
65760;BME280;52496;51.082;5.066;2023-04-01T13:19:56;100005.28;;;10.90;100.00
65760;BME280;52496;51.082;5.066;2023-04-01T13:25:24;100004.03;;;10.86;100.00
65760;BME280;52496;51.082;5.066;2023-04-01T13:28:23;100007.34;;;10.88;100.00
65760;BME280;52496;51.082;5.066;2023-04-01T13:43:00;100016.81;;;10.97;100.00
65760;BME280;52496;51.082;5.066;2023-04-01T13:51:33;100023.78;;;10.98;100.00
65760;BME280;52496;51.082;5.066;2023-04-01T13:57:27;100027.09;;;10.87;100.00
65760;BME280;52496;51.082;5.066;2023-04-01T14:11:44;100042.53;;;10.78;100.00
65760;BME280;52496;51.082;5.066;2023-04-01T14:14:43;100032.03;;;10.77;100.00
65760;BME280;52496;51.082;5.066;2023-04-01T14:17:43;100039.84;;;10.78;100.00
65760;BME280;52496;51.082;5.066;2023-04-01T14:31:51;100063.28;;;10.83;100.00
65760;BME280;52496;51.082;5.066;2023-04-01T14:37:27;100058.97;;;10.82;100.00
65760;BME280;52496;51.082;5.066;2023-04-01T14:40:20;100072.75;;;10.79;100.00
65760;BME280;52496;51.082;5.066;2023-04-01T14:49:04;100075.66;;;10.84;100.00
65760;BME280;52496;51.082;5.066;2023-04-01T14:51:37;100070.72;;;10.81;100.00
65760;BME280;52496;51.082;5.066;2023-04-01T14:54:15;100081.00;;;10.77;100.00
65760;BME280;52496;51.082;5.066;2023-04-01T14:59:54;100087.78;;;10.73;100.00
65760;BME280;52496;51.082;5.066;2023-04-01T15:08:26;100086.34;;;10.91;100.00
65760;BME280;52496;51.082;5.066;2023-04-01T15:11:17;100089.25;;;10.96;100.00
65760;BME280;52496;51.082;5.066;2023-04-01T15:14:03;100097.06;;;10.97;100.00
65760;BME280;52496;51.082;5.066;2023-04-01T15:16:59;100105.06;;;11.11;100.00
65760;BME280;52496;51.082;5.066;2023-04-01T15:19:48;100105.69;;;11.19;100.00
65760;BME280;52496;51.082;5.066;2023-04-01T15:22:39;100111.47;;;11.23;100.00
65760;BME280;52496;51.082;5.066;2023-04-01T15:25:36;100107.75;;;11.24;100.00
65760;BME280;52496;51.082;5.066;2023-04-01T15:28:24;100107.75;;;11.24;100.00
65760;BME280;52496;51.082;5.066;2023-04-01T15:37:29;100125.06;;;11.08;100.00
65760;BME280;52496;51.082;5.066;2023-04-01T15:46:09;100134.91;;;11.08;100.00
65760;BME280;52496;51.082;5.066;2023-04-01T15:51:34;100140.28;;;11.08;100.00
65760;BME280;52496;51.082;5.066;2023-04-01T15:59:58;100143.56;;;10.90;100.00
65760;BME280;52496;51.082;5.066;2023-04-01T16:11:50;100153.38;;;10.63;100.00
65760;BME280;52496;51.082;5.066;2023-04-01T16:17:26;100160.72;;;10.47;100.00
65760;BME280;52496;51.082;5.066;2023-04-01T16:20:02;100163.75;;;10.38;100.00
65760;BME280;52496;51.082;5.066;2023-04-01T16:23:02;100170.94;;;10.30;100.00
65760;BME280;52496;51.082;5.066;2023-04-01T16:25:44;100178.69;;;10.25;100.00
65760;BME280;52496;51.082;5.066;2023-04-01T16:28:34;100186.91;;;10.24;100.00
65760;BME280;52496;51.082;5.066;2023-04-01T16:31:14;100189.34;;;10.19;100.00
65760;BME280;52496;51.082;5.066;2023-04-01T16:33:52;100199.41;;;10.17;100.00
65760;BME280;52496;51.082;5.066;2023-04-01T16:36:41;100190.53;;;10.09;100.00
65760;BME280;52496;51.082;5.066;2023-04-01T16:39:36;100194.38;;;10.00;100.00
65760;BME280;52496;51.082;5.066;2023-04-01T16:42:19;100203.81;;;9.96;100.00
65760;BME280;52496;51.082;5.066;2023-04-01T16:47:45;100203.13;;;9.87;100.00
65760;BME280;52496;51.082;5.066;2023-04-01T16:50:27;100197.75;;;9.81;100.00
65760;BME280;52496;51.082;5.066;2023-04-01T16:53:17;100201.81;;;9.77;100.00
65760;BME280;52496;51.082;5.066;2023-04-01T16:59:12;100212.88;;;9.74;100.00
65760;BME280;52496;51.082;5.066;2023-04-01T17:01:53;100214.75;;;9.73;100.00
65760;BME280;52496;51.082;5.066;2023-04-01T17:04:34;100207.75;;;9.72;100.00
65760;BME280;52496;51.082;5.066;2023-04-01T17:13:10;100222.25;;;9.63;100.00
65760;BME280;52496;51.082;5.066;2023-04-01T17:24:35;100241.53;;;9.58;100.00
65760;BME280;52496;51.082;5.066;2023-04-01T17:27:26;100246.84;;;9.58;100.00
65760;BME280;52496;51.082;5.066;2023-04-01T17:32:58;100252.56;;;9.55;100.00
65760;BME280;52496;51.082;5.066;2023-04-01T17:35:39;100258.31;;;9.52;100.00
65760;BME280;52496;51.082;5.066;2023-04-01T17:52:15;100268.47;;;9.42;100.00
65760;BME280;52496;51.082;5.066;2023-04-01T18:00:22;100285.69;;;9.39;100.00
65760;BME280;52496;51.082;5.066;2023-04-01T18:03:01;100287.75;;;9.37;100.00
65760;BME280;52496;51.082;5.066;2023-04-01T18:08:15;100291.41;;;9.36;100.00
65760;BME280;52496;51.082;5.066;2023-04-01T18:19:29;100319.94;;;9.36;100.00
65760;BME280;52496;51.082;5.066;2023-04-01T18:22:23;100320.78;;;9.36;100.00
65760;BME280;52496;51.082;5.066;2023-04-01T18:25:21;100320.78;;;9.36;100.00
65760;BME280;52496;51.082;5.066;2023-04-01T18:28:32;100328.59;;;9.38;100.00
65760;BME280;52496;51.082;5.066;2023-04-01T18:36:43;100338.25;;;9.39;100.00
65760;BME280;52496;51.082;5.066;2023-04-01T18:42:19;100356.75;;;9.40;100.00
65760;BME280;52496;51.082;5.066;2023-04-01T18:48:10;100350.56;;;9.40;100.00
65760;BME280;52496;51.082;5.066;2023-04-01T18:50:54;100362.91;;;9.41;100.00
65760;BME280;52496;51.082;5.066;2023-04-01T18:56:05;100364.94;;;9.39;100.00
65760;BME280;52496;51.082;5.066;2023-04-01T19:01:39;100372.56;;;9.42;100.00
65760;BME280;52496;51.082;5.066;2023-04-01T19:04:30;100370.91;;;9.41;100.00
65760;BME280;52496;51.082;5.066;2023-04-01T19:10:07;100391.25;;;9.42;100.00
65760;BME280;52496;51.082;5.066;2023-04-01T19:21:42;100402.28;;;9.39;100.00
65760;BME280;52496;51.082;5.066;2023-04-01T19:27:31;100407.63;;;9.39;100.00
65760;BME280;52496;51.082;5.066;2023-04-01T19:35:46;100422.63;;;9.40;100.00
65760;BME280;52496;51.082;5.066;2023-04-01T19:38:31;100429.81;;;9.39;100.00
65760;BME280;52496;51.082;5.066;2023-04-01T19:44:12;100430.00;;;9.38;100.00
65760;BME280;52496;51.082;5.066;2023-04-01T19:46:55;100436.97;;;9.39;100.00
65760;BME280;52496;51.082;5.066;2023-04-01T19:50:09;100445.44;;;9.42;100.00
65760;BME280;52496;51.082;5.066;2023-04-01T19:52:47;100441.56;;;9.45;100.00
65760;BME280;52496;51.082;5.066;2023-04-01T19:55:38;100446.75;;;9.47;100.00
65760;BME280;52496;51.082;5.066;2023-04-01T19:58:21;100442.03;;;9.49;100.00
65760;BME280;52496;51.082;5.066;2023-04-01T20:00:58;100453.34;;;9.51;100.00
65760;BME280;52496;51.082;5.066;2023-04-01T20:03:50;100459.13;;;9.54;100.00
65760;BME280;52496;51.082;5.066;2023-04-01T20:06:46;100468.41;;;9.58;100.00
65760;BME280;52496;51.082;5.066;2023-04-01T20:12:42;100479.81;;;9.67;100.00
65760;BME280;52496;51.082;5.066;2023-04-01T20:15:37;100483.13;;;9.69;100.00
65760;BME280;52496;51.082;5.066;2023-04-01T20:18:19;100488.09;;;9.72;100.00
65760;BME280;52496;51.082;5.066;2023-04-01T20:20:59;100490.56;;;9.74;100.00
65760;BME280;52496;51.082;5.066;2023-04-01T20:23:52;100501.72;;;9.77;100.00
65760;BME280;52496;51.082;5.066;2023-04-01T20:26:27;100504.84;;;9.81;100.00
65760;BME280;52496;51.082;5.066;2023-04-01T20:32:34;100525.63;;;9.85;100.00
65760;BME280;52496;51.082;5.066;2023-04-01T20:38:06;100535.13;;;9.88;100.00
65760;BME280;52496;51.082;5.066;2023-04-01T20:43:58;100544.16;;;9.87;100.00
65760;BME280;52496;51.082;5.066;2023-04-01T21:12:23;100598.13;;;9.68;100.00
65760;BME280;52496;51.082;5.066;2023-04-01T21:17:55;100609.81;;;9.67;100.00
65760;BME280;52496;51.082;5.066;2023-04-01T21:26:15;100624.38;;;9.64;100.00
65760;BME280;52496;51.082;5.066;2023-04-01T21:34:42;100642.59;;;9.60;100.00
65760;BME280;52496;51.082;5.066;2023-04-01T21:37:22;100647.28;;;9.58;100.00
65760;BME280;52496;51.082;5.066;2023-04-01T21:48:18;100668.09;;;9.48;100.00
65760;BME280;52496;51.082;5.066;2023-04-01T21:51:27;100671.13;;;9.45;100.00
65760;BME280;52496;51.082;5.066;2023-04-01T21:54:26;100674.16;;;9.42;100.00
65760;BME280;52496;51.082;5.066;2023-04-01T22:02:34;100697.88;;;9.37;100.00
65760;BME280;52496;51.082;5.066;2023-04-01T22:16:58;100717.09;;;9.32;100.00
65760;BME280;52496;51.082;5.066;2023-04-01T22:19:41;100719.09;;;9.30;100.00
65760;BME280;52496;51.082;5.066;2023-04-01T22:25:07;100732.69;;;9.21;100.00
65760;BME280;52496;51.082;5.066;2023-04-01T22:27:51;100736.53;;;9.18;100.00
65760;BME280;52496;51.082;5.066;2023-04-01T22:33:11;100746.63;;;9.08;100.00
65760;BME280;52496;51.082;5.066;2023-04-01T22:45:15;100769.59;;;8.86;100.00
65760;BME280;52496;51.082;5.066;2023-04-01T22:54:11;100781.31;;;8.77;100.00
65760;BME280;52496;51.082;5.066;2023-04-01T22:56:51;100787.00;;;8.73;100.00
65760;BME280;52496;51.082;5.066;2023-04-01T23:02:23;100792.84;;;8.69;100.00
65760;BME280;52496;51.082;5.066;2023-04-01T23:04:58;100803.34;;;8.70;100.00
65760;BME280;52496;51.082;5.066;2023-04-01T23:07:38;100807.34;;;8.66;100.00
65760;BME280;52496;51.082;5.066;2023-04-01T23:10:26;100817.19;;;8.66;100.00
65760;BME280;52496;51.082;5.066;2023-04-01T23:12:58;100821.34;;;8.60;100.00
65760;BME280;52496;51.082;5.066;2023-04-01T23:15:32;100828.03;;;8.56;100.00
65760;BME280;52496;51.082;5.066;2023-04-01T23:18:22;100831.06;;;8.53;100.00
65760;BME280;52496;51.082;5.066;2023-04-01T23:21:09;100836.72;;;8.50;100.00
65760;BME280;52496;51.082;5.066;2023-04-01T23:26:50;100843.38;;;8.46;100.00
65760;BME280;52496;51.082;5.066;2023-04-01T23:29:23;100854.03;;;8.46;100.00
65760;BME280;52496;51.082;5.066;2023-04-01T23:32:00;100853.41;;;8.44;100.00
65760;BME280;52496;51.082;5.066;2023-04-01T23:34:32;100861.38;;;8.44;100.00
65760;BME280;52496;51.082;5.066;2023-04-01T23:37:13;100859.06;;;8.41;100.00